createdAt,value
2023-05-16T00:04:34.278Z,13.50
2023-05-16T00:09:44.171Z,13.00
2023-05-16T00:14:54.376Z,12.80
2023-05-16T00:20:11.476Z,11.80
2023-05-16T00:25:21.869Z,12.10
2023-05-16T00:30:31.928Z,12.80
2023-05-16T00:35:41.710Z,12.70
2023-05-16T00:40:51.412Z,12.30
2023-05-16T00:46:01.713Z,11.30
2023-05-16T00:51:12.177Z,10.70
2023-05-16T00:56:23.831Z,13.70
2023-05-16T01:01:34.774Z,12.90
2023-05-16T01:06:44.350Z,10.30
2023-05-16T01:12:04.053Z,13.10
2023-05-16T01:17:36.519Z,13.60
2023-05-16T01:23:05.271Z,11.90
2023-05-16T01:28:17.805Z,12.30
2023-05-16T01:33:27.768Z,14.10
2023-05-16T01:38:47.608Z,13.20
2023-05-16T01:44:04.585Z,12.10
2023-05-16T01:49:27.248Z,12.90
2023-05-16T01:54:43.539Z,15.30
2023-05-16T01:59:53.489Z,13.50
2023-05-16T02:05:03.508Z,12.60
2023-05-16T02:10:16.114Z,12.30
2023-05-16T02:15:26.771Z,13.70
2023-05-16T02:20:37.356Z,12.80
2023-05-16T02:25:46.947Z,11.80
2023-05-16T02:31:03.608Z,11.90
2023-05-16T02:36:14.455Z,11.40
2023-05-16T02:41:24.346Z,10.70
2023-05-16T02:46:35.325Z,10.00
2023-05-16T02:51:45.475Z,10.00
2023-05-16T02:56:55.296Z,12.40
2023-05-16T03:02:05.354Z,11.50
2023-05-16T03:07:15.387Z,11.90
2023-05-16T03:12:24.949Z,11.60
2023-05-16T03:17:34.805Z,12.00
2023-05-16T03:22:45.509Z,10.70
2023-05-16T03:27:55.180Z,11.30
2023-05-16T03:33:05.365Z,11.20
2023-05-16T03:38:15.585Z,10.60
2023-05-16T03:43:25.244Z,10.30
2023-05-16T03:48:35.046Z,12.10
2023-05-16T03:53:45.001Z,12.50
2023-05-16T03:58:54.716Z,9.90
2023-05-16T04:04:04.605Z,10.10
2023-05-16T04:09:14.286Z,9.40
2023-05-16T04:14:24.431Z,15.70
2023-05-16T04:19:34.187Z,10.80
2023-05-16T04:24:44.450Z,9.50
2023-05-16T04:29:54.398Z,11.50
2023-05-16T04:35:04.823Z,9.70
2023-05-16T04:40:17.586Z,12.00
2023-05-16T04:45:27.648Z,11.40
2023-05-16T04:50:38.246Z,13.20
2023-05-16T04:55:48.113Z,18.50
2023-05-16T05:01:01.699Z,20.00
2023-05-16T05:06:12.896Z,16.20
2023-05-16T05:11:23.445Z,13.30
2023-05-16T05:16:33.528Z,11.20
2023-05-16T05:21:45.047Z,11.40
2023-05-16T05:26:54.947Z,17.30
2023-05-16T05:32:04.896Z,9.60
2023-05-16T05:37:15.028Z,8.30
2023-05-16T05:42:24.677Z,8.20
2023-05-16T05:47:34.615Z,6.80
2023-05-16T05:52:44.458Z,7.30
2023-05-16T05:57:54.257Z,7.00
2023-05-16T06:03:04.113Z,5.60
2023-05-16T06:08:13.926Z,6.00
2023-05-16T06:13:23.798Z,5.30
2023-05-16T06:18:33.964Z,6.30
2023-05-16T06:23:43.683Z,6.20
2023-05-16T06:28:53.486Z,5.40
2023-05-16T06:34:03.097Z,4.10
2023-05-16T06:39:12.866Z,5.70
2023-05-16T06:44:22.584Z,6.50
2023-05-16T06:49:36.536Z,6.00
2023-05-16T06:54:46.361Z,6.90
2023-05-16T06:59:57.105Z,5.80
2023-05-16T07:05:09.231Z,4.70
2023-05-16T07:10:19.184Z,5.30
2023-05-16T07:15:29.366Z,5.80
2023-05-16T07:20:39.417Z,5.00
2023-05-16T07:25:49.568Z,5.00
2023-05-16T07:31:00.707Z,5.10
2023-05-16T07:36:16.611Z,5.20
2023-05-16T07:41:27.560Z,4.20
2023-05-16T07:46:37.744Z,4.70
2023-05-16T07:51:47.603Z,4.70
2023-05-16T07:56:57.446Z,6.90
2023-05-16T08:02:07.473Z,4.40
2023-05-16T08:07:17.405Z,5.70
2023-05-16T08:12:27.882Z,4.80
2023-05-16T08:17:38.176Z,4.90
2023-05-16T08:22:48.068Z,6.10
2023-05-16T08:27:57.839Z,5.70
2023-05-16T08:33:07.720Z,5.40
2023-05-16T08:38:17.500Z,4.80
2023-05-16T08:43:27.240Z,4.80
2023-05-16T08:48:38.264Z,4.40
2023-05-16T08:53:55.637Z,4.10
2023-05-16T08:59:07.024Z,4.40
2023-05-16T09:04:17.897Z,4.70
2023-05-16T09:09:28.457Z,4.10
2023-05-16T09:14:38.752Z,4.80
2023-05-16T09:19:53.141Z,3.50
2023-05-16T09:25:08.608Z,5.30
2023-05-16T09:30:29.611Z,3.70
2023-05-16T09:35:45.402Z,3.80
2023-05-16T09:40:55.833Z,3.70
2023-05-16T09:46:07.064Z,3.10
2023-05-16T09:51:17.356Z,3.20
2023-05-16T09:56:27.387Z,3.20
2023-05-16T10:01:37.613Z,3.30
2023-05-16T10:06:49.878Z,3.30
2023-05-16T10:12:04.397Z,3.40
2023-05-16T10:17:19.196Z,3.80
2023-05-16T10:22:31.213Z,2.70
2023-05-16T10:27:42.595Z,3.10
2023-05-16T10:32:53.800Z,3.70
2023-05-16T10:38:06.010Z,4.10
2023-05-16T10:43:28.960Z,3.20
2023-05-16T10:48:42.342Z,3.30
2023-05-16T10:53:55.105Z,4.10
2023-05-16T10:59:05.158Z,3.40
2023-05-16T11:04:15.963Z,2.90
2023-05-16T11:09:28.749Z,4.40
2023-05-16T11:14:45.547Z,3.30
2023-05-16T11:20:00.085Z,3.70
2023-05-16T11:25:14.046Z,4.50
2023-05-16T11:30:25.267Z,3.10
2023-05-16T11:35:35.242Z,3.60
2023-05-16T11:40:47.687Z,3.20
2023-05-16T11:46:01.700Z,3.60
2023-05-16T11:51:12.460Z,3.20
2023-05-16T11:56:24.243Z,3.90
2023-05-16T12:01:40.410Z,3.30
2023-05-16T12:07:02.571Z,3.70
2023-05-16T12:12:13.862Z,4.00
2023-05-16T12:17:23.783Z,4.50
2023-05-16T12:22:33.736Z,6.20
2023-05-16T12:27:48.400Z,4.60
2023-05-16T12:33:10.804Z,4.00
2023-05-16T12:38:22.473Z,4.50
2023-05-16T12:43:33.005Z,4.40
2023-05-16T12:48:50.398Z,4.60
2023-05-16T12:54:10.429Z,5.40
2023-05-16T12:59:24.771Z,7.20
2023-05-16T13:04:34.359Z,4.10
2023-05-16T13:09:43.904Z,5.90
2023-05-16T13:14:53.520Z,4.50
2023-05-16T13:20:05.216Z,4.90
2023-05-16T13:25:16.795Z,4.60
2023-05-16T13:30:26.491Z,6.40
2023-05-16T13:35:36.271Z,6.00
2023-05-16T13:40:45.857Z,7.20
2023-05-16T13:45:55.791Z,4.90
2023-05-16T13:51:05.744Z,5.90
2023-05-16T13:56:16.391Z,6.20
2023-05-16T14:01:29.416Z,5.50
2023-05-16T14:06:39.189Z,5.60
2023-05-16T14:11:48.755Z,7.30
2023-05-16T14:16:58.359Z,10.70
2023-05-16T14:22:08.734Z,11.00
2023-05-16T14:27:19.115Z,10.10
2023-05-16T14:32:28.976Z,7.00
2023-05-16T14:37:38.982Z,6.80
2023-05-16T14:42:48.837Z,6.30
2023-05-16T14:47:59.207Z,6.50
2023-05-16T14:53:09.328Z,7.00
2023-05-16T14:58:19.530Z,6.40
2023-05-16T15:03:30.860Z,9.20
2023-05-16T15:08:43.943Z,5.80
2023-05-16T15:13:54.416Z,8.00
2023-05-16T15:19:05.097Z,6.10
2023-05-16T15:24:15.661Z,6.60
2023-05-16T15:29:25.245Z,6.30
2023-05-16T15:34:36.326Z,6.30
2023-05-16T15:39:46.078Z,5.70
2023-05-16T15:44:55.647Z,6.70
2023-05-16T15:50:06.142Z,6.40
2023-05-16T15:55:16.870Z,6.60
2023-05-16T16:00:27.597Z,7.30
2023-05-16T16:05:37.494Z,8.10
2023-05-16T16:10:47.140Z,18.40
2023-05-16T16:15:56.990Z,17.10
2023-05-16T16:21:07.604Z,7.40
2023-05-16T16:26:17.835Z,6.10
2023-05-16T16:31:27.886Z,12.20
2023-05-16T16:36:37.594Z,9.60
2023-05-16T16:41:47.210Z,8.40
2023-05-16T16:46:56.965Z,8.40
2023-05-16T16:52:07.028Z,6.90
2023-05-16T16:57:16.990Z,6.60
2023-05-16T17:02:28.215Z,7.10
2023-05-16T17:07:38.248Z,7.70
2023-05-16T17:12:50.105Z,9.90
2023-05-16T17:18:00.085Z,8.00
2023-05-16T17:23:10.153Z,8.90
2023-05-16T17:28:20.400Z,9.00
2023-05-16T17:33:30.257Z,6.70
2023-05-16T17:38:40.404Z,7.20
2023-05-16T17:43:50.162Z,11.40
2023-05-16T17:48:59.976Z,16.40
2023-05-16T17:54:10.072Z,8.60
2023-05-16T17:59:20.402Z,9.10
2023-05-16T18:04:30.953Z,8.60
2023-05-16T18:09:40.766Z,10.00
2023-05-16T18:14:50.937Z,8.00
2023-05-16T18:20:09.195Z,7.70
2023-05-16T18:25:19.116Z,7.40
2023-05-16T18:30:29.359Z,10.40
2023-05-16T18:35:39.238Z,10.60
2023-05-16T18:40:50.665Z,10.00
2023-05-16T18:46:01.030Z,12.40
2023-05-16T18:51:10.672Z,8.70
2023-05-16T18:56:22.192Z,11.00
2023-05-16T19:01:32.219Z,11.00
2023-05-16T19:06:42.795Z,10.10
2023-05-16T19:11:55.625Z,12.80
2023-05-16T19:17:06.671Z,10.90
2023-05-16T19:22:16.681Z,10.00
2023-05-16T19:27:26.488Z,12.90
2023-05-16T19:32:36.292Z,12.80
2023-05-16T19:37:46.566Z,10.30
2023-05-16T19:42:56.500Z,9.80
2023-05-16T19:48:06.874Z,11.80
2023-05-16T19:53:16.889Z,10.80
2023-05-16T19:58:26.908Z,13.80
2023-05-16T20:03:36.860Z,11.50
2023-05-16T20:08:46.714Z,13.60
2023-05-16T20:14:02.011Z,11.30
2023-05-16T20:19:13.984Z,12.50
2023-05-16T20:24:23.733Z,8.70
2023-05-16T20:29:34.130Z,11.30
2023-05-16T20:34:44.040Z,10.90
2023-05-16T20:39:53.740Z,9.90
2023-05-16T20:45:03.772Z,12.50
2023-05-16T20:50:14.754Z,12.30
2023-05-16T20:55:28.498Z,9.80
2023-05-16T21:00:38.557Z,13.00
2023-05-16T21:05:48.369Z,13.20
2023-05-16T21:10:57.985Z,10.40
2023-05-16T21:16:09.412Z,12.00
2023-05-16T21:21:18.978Z,11.20
2023-05-16T21:26:29.142Z,8.50
2023-05-16T21:31:39.636Z,10.40
2023-05-16T21:36:49.419Z,10.40
2023-05-16T21:41:59.742Z,8.50
2023-05-16T21:47:09.796Z,10.60
2023-05-16T21:52:20.068Z,10.00
2023-05-16T21:57:29.765Z,9.20
2023-05-16T22:02:39.929Z,9.90
2023-05-16T22:07:49.975Z,8.10
2023-05-16T22:12:59.753Z,7.90
2023-05-16T22:18:10.223Z,9.10
2023-05-16T22:23:20.035Z,7.90
2023-05-16T22:28:29.767Z,8.90
2023-05-16T22:33:39.862Z,6.70
2023-05-16T22:38:49.879Z,6.60
2023-05-16T22:43:59.480Z,5.30
2023-05-16T22:49:09.417Z,6.80
2023-05-16T22:54:19.154Z,6.80
2023-05-16T22:59:28.867Z,7.60
2023-05-16T23:04:39.006Z,8.50
2023-05-16T23:09:49.100Z,4.90
2023-05-16T23:14:59.781Z,8.20
2023-05-16T23:20:11.530Z,6.80
2023-05-16T23:25:21.403Z,8.70
2023-05-16T23:30:31.744Z,5.50
2023-05-16T23:35:41.535Z,5.20
2023-05-16T23:40:51.397Z,7.00
2023-05-16T23:46:01.238Z,8.40
2023-05-16T23:51:11.613Z,7.50
2023-05-16T23:56:21.390Z,6.30
